Time;durP1;ratioP1;P1;durP2;ratioP2;P2;SDS_P1;SDS_P2;PMS_P1;PMS_P2;Temp;Humidity;BMP_temperature;BMP_pressure;BME280_temperature;BME280_humidity;BME280_pressure;Samples;Min_cycle;Max_cycle;Signal;HPM_P1;HPM_P2
2023/03/28 00:01:08;;;;;;;11.32;3.65;;;0.20;99.90;;;-1.04;100.00;98577.19;5040383;28;20045;-73
2023/03/28 00:03:38;;;;;;;8.20;3.83;;;0.20;99.90;;;-1.07;100.00;98577.16;5041378;28;20044;-73
2023/03/28 00:06:17;;;;;;;7.60;2.10;;;0.20;99.90;;;-0.88;100.00;98586.00;5044343;28;20049;-72
2023/03/28 00:08:46;;;;;;;8.05;2.90;;;0.30;99.90;;;-0.92;100.00;98587.63;5042787;28;20080;-73
2023/03/28 00:11:19;;;;;;;50.15;22.95;;;0.30;99.90;;;-1.08;100.00;98585.59;5042771;28;20147;-73
2023/03/28 00:13:56;;;;;;;11.07;4.45;;;0.30;99.90;;;-1.04;100.00;98582.28;5043783;28;20060;-73
2023/03/28 00:16:25;;;;;;;13.10;5.32;;;0.30;99.90;;;-1.11;100.00;98583.00;5044265;28;20060;-73
2023/03/28 00:18:53;;;;;;;10.98;3.30;;;0.30;99.90;;;-1.13;100.00;98582.97;5041623;28;20044;-72
2023/03/28 00:21:29;;;;;;;12.52;3.83;;;0.30;99.90;;;-1.04;100.00;98584.84;5041880;28;20037;-72
2023/03/28 00:24:03;;;;;;;7.45;2.90;;;0.20;99.90;;;-0.94;100.00;98589.28;5044159;28;20411;-73
2023/03/28 00:26:34;;;;;;;8.23;3.53;;;0.30;99.90;;;-1.19;100.00;98592.16;5044209;28;20463;-72
2023/03/28 00:29:04;;;;;;;12.60;4.20;;;0.20;99.90;;;-1.24;100.00;98589.53;5046466;28;20137;-72
2023/03/28 00:31:33;;;;;;;10.15;5.32;;;0.20;99.90;;;-1.24;100.00;98597.16;5057218;28;20053;-72
2023/03/28 00:34:02;;;;;;;10.68;4.60;;;0.10;99.90;;;-1.23;100.00;98603.13;5040528;28;20084;-72
2023/03/28 00:36:31;;;;;;;10.23;4.50;;;0.10;99.90;;;-1.24;100.00;98606.50;5045182;28;20431;-72
2023/03/28 00:39:00;;;;;;;12.18;4.72;;;-0.10;99.90;;;-1.40;100.00;98608.72;5028752;28;20519;-72
2023/03/28 00:41:32;;;;;;;14.68;4.97;;;-0.20;99.90;;;-1.45;100.00;98614.56;5043861;28;20148;-72
2023/03/28 00:44:00;;;;;;;12.13;4.72;;;-0.20;99.90;;;-1.55;100.00;98616.03;5040503;28;20056;-72
2023/03/28 00:46:38;;;;;;;10.60;4.88;;;-0.30;99.90;;;-1.52;100.00;98619.50;5041980;28;20415;-72
2023/03/28 00:49:20;;;;;;;11.95;4.88;;;-0.30;99.90;;;-1.52;100.00;98619.50;5043550;28;20049;-72
2023/03/28 00:51:56;;;;;;;8.57;4.03;;;-0.40;99.90;;;-1.44;100.00;98616.25;5058316;28;20362;-73
2023/03/28 00:54:29;;;;;;;12.68;4.07;;;-0.40;99.90;;;-1.37;100.00;98603.72;5041593;28;20057;-72
2023/03/28 00:57:00;;;;;;;10.25;3.60;;;-0.30;99.90;;;-1.39;100.00;98617.22;5042096;28;20045;-72
2023/03/28 00:59:32;;;;;;;9.05;3.95;;;-0.30;99.90;;;-1.46;100.00;98611.13;5046030;28;20064;-72
2023/03/28 01:02:00;;;;;;;7.00;2.78;;;-0.30;99.90;;;-1.42;100.00;98612.91;5055096;28;20059;-72
2023/03/28 01:04:36;;;;;;;8.55;2.95;;;-0.20;99.90;;;-1.33;100.00;98607.16;5022020;28;20045;-72
2023/03/28 01:07:04;;;;;;;9.05;3.10;;;-0.20;99.90;;;-1.43;100.00;98608.66;5041349;28;20049;-72
2023/03/28 01:09:31;;;;;;;8.50;2.45;;;-0.10;99.90;;;-1.15;100.00;98612.66;5043991;28;20056;-72
2023/03/28 01:11:59;;;;;;;8.52;3.40;;;-0.10;99.90;;;-1.28;100.00;98616.66;5044221;28;20158;-72
2023/03/28 01:14:29;;;;;;;6.75;2.55;;;0.00;99.90;;;-1.25;100.00;98620.94;5042196;28;20124;-72
2023/03/28 01:16:56;;;;;;;4.70;2.40;;;0.00;99.90;;;-1.38;100.00;98616.41;5039080;28;20055;-73
2023/03/28 01:20:28;;;;;;;7.78;2.55;;;-0.10;99.90;;;-1.22;100.00;98617.59;5042117;28;20139;-72
2023/03/28 01:23:19;;;;;;;9.60;2.70;;;0.10;99.90;;;-1.05;100.00;98618.78;5015589;28;20056;-72
2023/03/28 01:26:04;;;;;;;7.60;2.22;;;0.10;99.90;;;-0.92;100.00;98614.78;5059637;28;20036;-72
2023/03/28 01:28:51;;;;;;;9.65;2.60;;;0.20;99.90;;;-1.09;100.00;98612.78;5040567;28;20049;-73
2023/03/28 01:32:04;;;;;;;7.35;2.72;;;0.20;99.90;;;-1.01;100.00;98607.81;5039569;28;20041;-73
2023/03/28 01:35:14;;;;;;;5.18;2.83;;;0.30;99.90;;;-1.16;100.00;98615.19;5039463;28;20424;-72
2023/03/28 01:38:07;;;;;;;8.45;2.65;;;0.30;99.90;;;-1.25;100.00;98615.84;5040263;28;20055;-72
2023/03/28 01:40:43;;;;;;;;;;;0.10;99.90;;;-1.21;100.00;98611.66;5044116;28;20049;-72
2023/03/28 01:43:35;;;;;;;13.85;3.13;;;0.10;99.90;;;-1.49;100.00;98611.06;5043668;28;19925;-72
2023/03/28 01:46:24;;;;;;;9.85;3.25;;;-0.10;99.90;;;-1.59;100.00;98614.25;5026263;28;20045;-72
2023/03/28 01:49:22;;;;;;;8.40;2.47;;;-0.30;99.90;;;-1.63;100.00;98609.91;5053921;28;20056;-72
2023/03/28 01:52:04;;;;;;;8.82;3.55;;;-0.30;99.90;;;-1.75;100.00;98626.63;5041309;28;20056;-72
2023/03/28 01:55:06;;;;;;;10.50;3.35;;;-0.40;99.90;;;-1.69;100.00;98616.59;5041010;28;20056;-73
2023/03/28 01:58:00;;;;;;;9.30;3.38;;;-0.50;99.90;;;-1.79;100.00;98616.34;5020166;28;20472;-72
2023/03/28 02:00:44;;;;;;;9.30;3.33;;;-0.50;99.90;;;-1.83;100.00;98623.03;5034086;28;20467;-72
2023/03/28 02:03:27;;;;;;;10.23;3.25;;;-0.50;99.90;;;-2.01;100.00;98623.44;5042594;28;20470;-73
2023/03/28 02:05:57;;;;;;;9.32;3.00;;;-0.50;99.90;;;-1.90;100.00;98626.25;5057544;28;20045;-72
2023/03/28 02:08:32;;;;;;;10.95;4.05;;;-0.50;99.90;;;-2.09;100.00;98627.50;5044555;28;20503;-72
2023/03/28 02:10:59;;;;;;;8.57;3.35;;;-0.60;99.90;;;-1.92;100.00;98630.44;5040968;28;20104;-72
2023/03/28 02:13:36;;;;;;;8.80;2.90;;;-0.60;99.90;;;-1.80;100.00;98632.41;5040679;28;20431;-71
2023/03/28 02:16:06;;;;;;;10.40;3.53;;;-0.60;99.90;;;-1.98;100.00;98626.09;5055778;28;20061;-72
2023/03/28 02:18:40;;;;;;;9.07;3.60;;;-0.60;99.90;;;-1.95;100.00;98622.75;5041527;28;20498;-72
2023/03/28 02:21:16;;;;;;;10.63;2.65;;;-0.60;99.90;;;-1.86;100.00;98628.06;5028344;28;20067;-72
2023/03/28 02:23:47;;;;;;;11.00;2.97;;;-0.60;99.90;;;-1.91;100.00;98627.09;5038932;28;20048;-72
2023/03/28 02:26:16;;;;;;;8.15;2.75;;;-0.60;99.90;;;-1.93;100.00;98616.88;5040613;28;20053;-72
2023/03/28 02:28:49;;;;;;;6.75;2.60;;;-0.60;99.90;;;-1.99;100.00;98615.88;5052437;28;20081;-72
2023/03/28 02:31:17;;;;;;;7.60;3.30;;;-0.60;99.90;;;-2.09;100.00;98612.25;5057012;28;20041;-72
2023/03/28 02:33:49;;;;;;;4.88;2.50;;;-0.70;99.90;;;-2.07;100.00;98617.38;5040052;28;20061;-72
2023/03/28 02:36:45;;;;;;;8.05;3.40;;;-0.70;99.90;;;-2.17;100.00;98611.19;5042175;28;20526;-72
2023/03/28 02:39:34;;;;;;;6.60;2.70;;;-0.70;99.90;;;-2.09;100.00;98614.78;5043259;28;20057;-72
2023/03/28 02:42:55;;;;;;;7.38;3.10;;;-0.70;99.90;;;-2.11;100.00;98612.22;5028561;28;20521;-72
2023/03/28 02:46:00;;;;;;;6.03;2.78;;;-0.70;99.90;;;-2.08;100.00;98603.78;5025850;28;20068;-72
2023/03/28 02:48:34;;;;;;;8.48;3.33;;;-0.70;99.90;;;-2.15;100.00;98604.47;5030150;28;20498;-72
2023/03/28 02:51:39;;;;;;;12.25;2.80;;;-0.70;99.90;;;-2.28;100.00;98600.78;5039011;28;20052;-72
2023/03/28 02:54:23;;;;;;;9.27;3.40;;;-0.80;99.90;;;-2.49;100.00;98606.16;5039099;28;20041;-72
2023/03/28 02:57:09;;;;;;;7.80;3.03;;;-0.90;99.90;;;-2.35;100.00;98602.31;5038061;28;20484;-72
2023/03/28 03:00:12;;;;;;;6.00;2.50;;;-0.90;99.90;;;-2.35;100.00;98603.97;5042006;28;20041;-72
2023/03/28 03:02:42;;;;;;;10.13;2.80;;;-0.90;99.90;;;-2.32;100.00;98602.38;5038672;28;20926;-72
2023/03/28 03:05:10;;;;;;;9.13;3.15;;;-0.90;99.90;;;-2.30;100.00;98597.34;5053665;28;20048;-72
2023/03/28 03:07:37;;;;;;;7.45;2.95;;;-0.90;99.90;;;-2.48;100.00;98596.88;5045263;28;20063;-72
2023/03/28 03:10:08;;;;;;;8.82;3.20;;;-0.90;99.90;;;-2.35;100.00;98596.34;5058705;28;20047;-72
2023/03/28 03:12:36;;;;;;;7.97;2.92;;;-0.90;99.90;;;-2.63;100.00;98595.63;5041026;28;20060;-72
2023/03/28 03:15:06;;;;;;;7.20;2.55;;;-1.00;99.90;;;-2.69;100.00;98600.59;5042948;28;20045;-72
2023/03/28 03:17:33;;;;;;;9.90;2.80;;;-1.10;99.90;;;-2.63;100.00;98593.09;5047320;28;20045;-72
2023/03/28 03:20:01;;;;;;;7.95;2.67;;;-1.20;99.90;;;-2.57;100.00;98595.81;5042892;28;20128;-72
2023/03/28 03:22:28;;;;;;;4.95;2.10;;;-1.20;99.90;;;-2.64;100.00;98591.38;5043592;28;20053;-72
2023/03/28 03:25:03;;;;;;;5.47;2.60;;;-1.20;99.90;;;-2.59;100.00;98591.50;5042247;28;20057;-73
2023/03/28 03:27:32;;;;;;;6.65;2.30;;;-1.20;99.90;;;-2.46;100.00;98596.09;5044762;28;20056;-73
2023/03/28 03:29:59;;;;;;;10.73;3.22;;;-1.20;99.90;;;-2.59;100.00;98594.06;5042582;28;20266;-72
2023/03/28 03:32:26;;;;;;;6.78;2.72;;;-1.20;99.90;;;-2.52;100.00;98586.59;5045091;28;20579;-72
2023/03/28 03:34:54;;;;;;;9.77;3.65;;;-1.20;99.90;;;-2.54;100.00;98592.47;5046115;28;20049;-72
2023/03/28 03:37:21;;;;;;;7.82;3.38;;;-1.20;99.90;;;-2.60;100.00;98600.81;5043177;28;20052;-73
2023/03/28 03:39:48;;;;;;;8.55;4.28;;;-1.20;99.90;;;-2.67;100.00;98603.16;5041539;28;20360;-72
2023/03/28 03:42:15;;;;;;;8.80;3.83;;;-1.20;99.90;;;-2.61;100.00;98608.41;5044514;28;20060;-72
2023/03/28 03:44:42;;;;;;;9.95;3.30;;;-1.30;99.90;;;-2.59;100.00;98611.84;5046455;28;20083;-72
2023/03/28 03:47:09;;;;;;;8.43;3.55;;;-1.30;99.90;;;-2.57;100.00;98607.66;5040073;28;20182;-73
2023/03/28 03:49:37;;;;;;;11.38;3.53;;;-1.30;99.90;;;-2.59;100.00;98611.84;5047726;28;20052;-72
2023/03/28 03:52:04;;;;;;;9.30;3.90;;;-1.20;99.90;;;-2.54;100.00;98618.75;5043978;28;20044;-72
2023/03/28 03:54:31;;;;;;;6.95;3.33;;;-1.20;99.90;;;-2.55;100.00;98611.09;5046910;28;20053;-73
2023/03/28 03:57:01;;;;;;;10.18;3.90;;;-1.20;99.90;;;-2.75;100.00;98610.56;5046526;28;20625;-72
2023/03/28 03:59:29;;;;;;;8.68;2.83;;;-1.30;99.90;;;-2.70;100.00;98613.25;5041019;28;20049;-72
2023/03/28 04:01:56;;;;;;;7.47;4.03;;;-1.30;99.90;;;-2.75;100.00;98613.13;5041556;28;20049;-72
2023/03/28 04:04:23;;;;;;;8.98;3.92;;;-1.30;99.90;;;-2.80;100.00;98613.00;5043441;28;20053;-72
2023/03/28 04:06:50;;;;;;;14.38;5.63;;;-1.40;99.90;;;-2.80;100.00;98610.44;5045796;28;20147;-72
2023/03/28 04:09:19;;;;;;;11.98;7.38;;;-1.40;99.90;;;-2.74;100.00;98610.63;5040907;28;20041;-72
2023/03/28 04:11:46;;;;;;;11.63;6.80;;;-1.30;99.90;;;-2.78;100.00;98613.91;5046279;28;20041;-72
2023/03/28 04:14:13;;;;;;;12.50;6.72;;;-1.40;99.90;;;-2.82;100.00;98616.31;5047029;28;20123;-72
2023/03/28 04:16:40;;;;;;;15.45;7.07;;;-1.40;99.90;;;-2.86;100.00;98615.34;5041915;28;20064;-72
2023/03/28 04:19:09;;;;;;;14.45;7.13;;;-1.40;99.90;;;-2.88;100.00;98618.69;5046553;28;20045;-71
2023/03/28 04:21:41;;;;;;;11.50;6.28;;;-1.50;99.90;;;-2.89;100.00;98628.00;5048122;28;20095;-71
2023/03/28 04:24:08;;;;;;;15.18;6.43;;;-1.50;99.90;;;-2.84;100.00;98628.97;5047658;28;20115;-72
2023/03/28 04:26:36;;;;;;;13.15;6.28;;;-1.50;99.90;;;-2.84;100.00;98628.97;5042285;28;20165;-72
2023/03/28 04:29:04;;;;;;;9.77;5.60;;;-1.50;99.90;;;-2.88;100.00;98633.94;5042513;28;20041;-72
2023/03/28 04:31:34;;;;;;;9.40;4.85;;;-1.50;99.90;;;-2.81;100.00;98630.72;5042885;28;20063;-72
2023/03/28 04:34:02;;;;;;;14.90;6.75;;;-1.50;99.90;;;-2.88;100.00;98637.31;5045555;28;20049;-72
2023/03/28 04:36:30;;;;;;;9.77;4.82;;;-1.50;99.90;;;-2.97;100.00;98630.31;5046502;28;20063;-72
2023/03/28 04:39:00;;;;;;;10.15;4.30;;;-1.50;99.90;;;-3.05;100.00;98636.00;5045716;28;20048;-72
2023/03/28 04:41:30;;;;;;;12.45;4.57;;;-1.60;99.90;;;-2.97;100.00;98640.47;5042018;28;20128;-72
2023/03/28 04:43:58;;;;;;;11.02;5.03;;;-1.60;99.90;;;-3.15;100.00;98642.47;5048376;28;20044;-72
2023/03/28 04:46:25;;;;;;;10.95;4.88;;;-1.60;99.90;;;-3.17;100.00;98633.94;5046788;28;20048;-72
2023/03/28 04:48:52;;;;;;;13.40;5.82;;;-1.70;99.90;;;-3.13;100.00;98640.00;5039412;28;20044;-73
2023/03/28 04:51:23;;;;;;;16.20;6.10;;;-1.70;99.90;;;-3.11;100.00;98639.22;5040653;28;20053;-72
2023/03/28 04:53:51;;;;;;;19.90;7.03;;;-1.70;99.90;;;-3.30;100.00;98650.53;5048000;28;20051;-72
2023/03/28 04:56:18;;;;;;;17.30;8.20;;;-1.80;99.90;;;-3.29;100.00;98653.91;5045479;28;20056;-73
2023/03/28 04:58:45;;;;;;;15.77;8.30;;;-1.80;99.90;;;-3.27;100.00;98650.59;5059425;28;20045;-72
2023/03/28 05:01:12;;;;;;;18.80;8.90;;;-1.90;99.90;;;-3.39;100.00;98663.81;5044184;28;20076;-72
2023/03/28 05:03:39;;;;;;;14.23;7.43;;;-1.90;99.90;;;-3.20;100.00;98665.19;5040597;28;20051;-72
2023/03/28 05:06:07;;;;;;;16.45;7.80;;;-1.90;99.90;;;-3.14;100.00;98669.63;5041561;28;20128;-72
2023/03/28 05:08:34;;;;;;;16.27;7.50;;;-1.80;99.90;;;-3.10;100.00;98673.09;5052079;28;20503;-72
2023/03/28 05:11:01;;;;;;;18.25;7.20;;;-1.80;99.90;;;-3.13;100.00;98678.09;5042693;28;20044;-72
2023/03/28 05:13:28;;;;;;;15.32;7.03;;;-1.70;99.90;;;-3.17;100.00;98675.47;5024953;28;20128;-71
2023/03/28 05:15:56;;;;;;;19.02;7.10;;;-1.70;99.90;;;-3.02;100.00;98669.09;5039330;28;20124;-72
2023/03/28 05:18:24;;;;;;;10.07;5.63;;;-1.70;99.90;;;-2.96;100.00;98675.22;5042713;28;20420;-71
2023/03/28 05:20:50;;;;;;;13.38;5.80;;;-1.70;99.90;;;-2.96;100.00;98679.44;5042549;28;20579;-71
2023/03/28 05:23:17;;;;;;;12.32;5.90;;;-1.70;99.90;;;-3.00;100.00;98680.16;5040818;28;20049;-72
2023/03/28 05:25:51;;;;;;;15.63;6.38;;;-1.70;99.90;;;-3.02;100.00;98681.81;5043196;28;20053;-71
2023/03/28 05:28:19;;;;;;;10.70;5.13;;;-1.80;99.90;;;-2.94;100.00;98675.28;5046521;28;20081;-72
2023/03/28 05:30:47;;;;;;;14.02;6.30;;;-1.70;99.90;;;-3.03;100.00;98678.41;5045484;28;20048;-71
2023/03/28 05:33:14;;;;;;;18.02;6.97;;;-1.70;99.90;;;-2.97;100.00;98686.19;5040447;28;20052;-72
2023/03/28 05:35:42;;;;;;;22.70;9.68;;;-1.80;99.90;;;-3.12;100.00;98682.34;5037978;28;20079;-72
2023/03/28 05:38:09;;;;;;;16.80;8.68;;;-1.90;99.90;;;-2.99;100.00;98682.75;5044939;28;20045;-72
2023/03/28 05:40:36;;;;;;;15.05;8.25;;;-1.90;99.90;;;-2.97;100.00;98676.03;5043525;28;20456;-72
2023/03/28 05:43:03;;;;;;;18.63;9.38;;;-1.80;99.90;;;-2.96;100.00;98682.84;5043112;28;20056;-72
2023/03/28 05:45:30;;;;;;;21.02;10.98;;;-1.90;99.90;;;-3.18;100.00;98681.34;5039642;28;20049;-72
2023/03/28 05:47:58;;;;;;;19.60;10.23;;;-2.00;99.90;;;-3.24;100.00;98685.38;5040959;28;20041;-72
2023/03/28 05:50:25;;;;;;;22.08;10.65;;;-2.00;99.90;;;-3.26;100.00;98692.09;5039966;28;20045;-72
2023/03/28 05:52:52;;;;;;;19.92;9.88;;;-2.00;99.90;;;-3.05;100.00;98684.25;5040464;28;20041;-72
2023/03/28 05:55:19;;;;;;;18.17;10.10;;;-1.90;99.90;;;-2.99;100.00;98689.50;5040774;28;20045;-71
2023/03/28 05:57:47;;;;;;;23.60;11.98;;;-2.00;99.90;;;-3.16;100.00;98689.03;5042164;28;20056;-72
2023/03/28 06:00:15;;;;;;;19.52;9.75;;;-2.10;99.90;;;-3.25;100.00;98679.44;5041874;28;20053;-71
2023/03/28 06:02:42;;;;;;;21.63;10.70;;;-2.10;99.90;;;-3.28;100.00;98681.06;5046458;28;20049;-72
2023/03/28 06:05:12;;;;;;;39.80;19.85;;;-2.20;99.90;;;-3.35;100.00;98682.53;5043143;28;20044;-71
2023/03/28 06:07:40;;;;;;;34.75;15.10;;;-2.20;99.90;;;-3.23;100.00;98676.97;5043292;28;20048;-72
2023/03/28 06:10:11;;;;;;;16.60;9.77;;;-2.10;99.90;;;-2.96;100.00;98682.00;5040430;28;20088;-72
2023/03/28 06:12:39;;;;;;;18.25;8.60;;;-1.90;99.90;;;-2.82;100.00;98685.78;5057311;28;20200;-72
2023/03/28 06:15:07;;;;;;;15.30;8.30;;;-1.80;99.90;;;-2.81;100.00;98686.63;5041864;28;20463;-71
2023/03/28 06:17:38;;;;;;;15.77;7.30;;;-1.70;99.90;;;-2.79;100.00;98687.53;5043534;28;20560;-72
2023/03/28 06:20:08;;;;;;;13.50;6.75;;;-1.60;99.90;;;-2.58;100.00;98690.69;5040854;28;20049;-71
2023/03/28 06:22:36;;;;;;;14.77;6.38;;;-1.50;99.90;;;-2.48;100.00;98698.56;5044056;28;20052;-71
2023/03/28 06:25:05;;;;;;;12.75;6.45;;;-1.40;99.90;;;-2.40;100.00;98697.06;5046066;28;20120;-71
2023/03/28 06:27:33;;;;;;;14.45;5.85;;;-1.40;99.90;;;-2.27;100.00;98699.13;5043818;28;20081;-71
2023/03/28 06:30:00;;;;;;;13.15;6.03;;;-1.20;99.90;;;-2.15;100.00;98699.44;5038583;28;20315;-71
2023/03/28 06:32:27;;;;;;;14.13;7.93;;;-1.10;99.90;;;-2.08;100.00;98700.44;5043282;28;20049;-71
2023/03/28 06:34:54;;;;;;;13.98;8.60;;;-1.00;99.90;;;-2.02;100.00;98695.53;5039255;28;20045;-71
2023/03/28 06:37:22;;;;;;;12.88;8.10;;;-1.00;99.90;;;-1.92;100.00;98714.41;5040796;28;20535;-71
2023/03/28 06:39:51;;;;;;;12.63;7.15;;;-0.90;99.90;;;-1.73;100.00;98706.44;5056063;28;20111;-71
2023/03/28 06:42:19;;;;;;;14.40;6.75;;;-0.80;99.90;;;-1.76;100.00;98705.47;5041973;28;20490;-71
2023/03/28 06:44:46;;;;;;;13.32;7.00;;;-0.80;99.90;;;-1.51;100.00;98699.28;5043146;28;20045;-71
2023/03/28 06:47:13;;;;;;;11.55;6.40;;;-0.70;99.90;;;-1.53;100.00;98700.94;5041245;28;20487;-71
2023/03/28 06:49:40;;;;;;;14.25;7.68;;;-0.60;99.90;;;-1.38;100.00;98701.31;5039949;28;20049;-71
2023/03/28 06:52:07;;;;;;;15.88;8.52;;;-0.40;99.90;;;-1.36;100.00;98699.66;5040127;28;20045;-71
2023/03/28 06:54:34;;;;;;;15.40;7.20;;;-0.40;99.90;;;-1.17;100.00;98697.50;5045384;28;20049;-71
2023/03/28 06:57:01;;;;;;;11.75;6.15;;;-0.30;99.90;;;-1.10;100.00;98692.56;5036712;28;20052;-72
2023/03/28 06:59:28;;;;;;;14.38;7.03;;;-0.20;99.90;;;-0.91;100.00;98683.66;5040970;28;20056;-72
2023/03/28 07:01:55;;;;;;;10.15;5.35;;;-0.10;99.90;;;-0.75;100.00;98684.81;5039417;28;20053;-71
2023/03/28 07:04:23;;;;;;;14.93;7.38;;;0.10;99.90;;;-0.65;100.00;98694.38;5042493;28;20053;-71
2023/03/28 07:06:50;;;;;;;16.08;8.05;;;0.10;99.90;;;-0.96;100.00;98690.31;5040611;28;20053;-72
2023/03/28 07:09:17;;;;;;;16.88;8.77;;;0.10;99.90;;;-0.69;100.00;98695.13;5042364;28;20060;-71
2023/03/28 07:11:43;;;;;;;26.95;13.00;;;0.10;99.90;;;-0.41;100.00;98695.69;5035739;28;20056;-71
2023/03/28 07:14:11;;;;;;;20.50;11.43;;;0.30;99.90;;;-0.06;100.00;98696.31;5042209;28;20049;-71
2023/03/28 07:16:38;;;;;;;15.68;8.30;;;0.50;99.90;;;0.11;100.00;98694.03;5041446;28;20056;-72
2023/03/28 07:19:05;;;;;;;16.98;8.70;;;0.70;99.90;;;0.26;100.00;98687.50;5042519;28;20134;-71
2023/03/28 07:21:32;;;;;;;24.42;11.70;;;0.90;99.90;;;0.14;100.00;98685.59;5044853;28;20056;-71
2023/03/28 07:23:59;;;;;;;24.17;14.57;;;1.00;99.90;;;0.05;100.00;98691.41;5043949;28;20511;-71
2023/03/28 07:26:27;;;;;;;23.33;10.95;;;1.00;99.90;;;0.49;100.00;98681.03;5041276;28;20422;-71
2023/03/28 07:28:55;;;;;;;16.67;8.05;;;1.10;99.90;;;0.78;100.00;98680.63;5047083;28;20041;-71
2023/03/28 07:31:23;;;;;;;12.35;6.30;;;1.30;99.90;;;0.68;100.00;98683.88;5042007;28;20077;-72
2023/03/28 07:33:50;;;;;;;13.20;6.63;;;1.40;99.90;;;0.71;100.00;98684.78;5040962;28;20042;-72
2023/03/28 07:36:20;;;;;;;15.95;7.63;;;1.50;99.90;;;1.02;100.00;98688.59;5040081;28;20465;-71
2023/03/28 07:38:47;;;;;;;14.23;6.47;;;1.70;99.90;;;1.37;100.00;98680.53;5036153;28;20049;-72
2023/03/28 07:41:15;;;;;;;11.75;5.35;;;1.80;99.90;;;1.47;100.00;98686.63;5045305;28;20473;-72
2023/03/28 07:43:43;;;;;;;11.85;4.45;;;2.00;99.90;;;1.65;100.00;98686.81;5052060;28;20049;-72
2023/03/28 07:46:15;;;;;;;9.88;3.72;;;2.10;99.90;;;1.83;100.00;98687.84;5042034;28;20145;-72
2023/03/28 07:48:45;;;;;;;7.75;2.40;;;2.30;99.90;;;1.93;100.00;98681.97;5058555;28;20308;-72
2023/03/28 07:51:12;;;;;;;12.57;1.63;;;2.50;99.90;;;2.09;100.00;98672.72;5041406;28;20045;-72
2023/03/28 07:53:40;;;;;;;11.10;2.28;;;2.70;99.90;;;2.21;100.00;98677.97;5042169;28;20098;-72
2023/03/28 07:56:11;;;;;;;9.70;1.80;;;2.90;99.90;;;2.56;100.00;98672.25;5040400;28;20415;-72
2023/03/28 07:58:40;;;;;;;7.93;1.60;;;3.10;99.90;;;3.50;100.00;98665.03;5041321;28;20053;-71
2023/03/28 08:01:10;;;;;;;5.90;1.70;;;3.30;99.90;;;4.31;100.00;98662.59;5045923;28;20052;-72
2023/03/28 08:03:38;;;;;;;8.77;1.80;;;3.60;99.90;;;5.01;100.00;98659.03;5048798;28;20064;-73
2023/03/28 08:06:09;;;;;;;5.43;1.42;;;3.90;99.90;;;5.28;100.00;98658.94;5047658;28;20048;-72
2023/03/28 08:08:50;;;;;;;7.03;1.35;;;4.30;99.90;;;5.77;100.00;98657.00;5051421;28;20049;-72
2023/03/28 08:11:17;;;;;;;6.95;1.75;;;4.90;99.90;;;6.86;100.00;98643.19;5048065;28;20053;-73
2023/03/28 08:13:44;;;;;;;6.63;1.45;;;5.90;99.90;;;7.23;100.00;98647.09;5039756;28;20076;-73
2023/03/28 08:16:11;;;;;;;6.20;1.27;;;7.00;99.90;;;7.71;100.00;98649.94;5046383;28;20040;-70
2023/03/28 08:18:39;;;;;;;6.45;1.33;;;7.90;99.90;;;8.47;100.00;98635.00;5046329;28;20140;-72
2023/03/28 08:21:06;;;;;;;6.60;1.52;;;9.20;99.90;;;7.86;100.00;98639.38;5058844;28;20045;-72
2023/03/28 08:23:34;;;;;;;6.72;1.38;;;10.00;99.90;;;8.09;100.00;98636.44;5043617;28;20176;-73
2023/03/28 08:26:04;;;;;;;6.25;1.30;;;9.60;99.90;;;7.80;100.00;98636.91;5042205;28;20553;-72
2023/03/28 08:28:36;;;;;;;8.75;1.52;;;9.70;99.90;;;8.44;100.00;98631.59;5043432;28;20492;-71
2023/03/28 08:31:13;;;;;;;5.87;1.60;;;10.00;99.90;;;9.45;100.00;98631.41;5050195;28;20052;-75
2023/03/28 08:33:43;;;;;;;5.75;1.67;;;11.10;99.90;;;8.30;100.00;98630.09;5061796;28;20348;-73
2023/03/28 08:36:14;;;;;;;8.52;1.85;;;11.40;98.70;;;8.94;100.00;98640.19;5052894;28;20046;-73
2023/03/28 08:38:43;;;;;;;6.95;1.20;;;11.70;99.70;;;9.02;100.00;98630.53;5047701;28;20050;-73
2023/03/28 08:41:57;;;;;;;8.73;1.85;;;12.30;97.70;;;8.94;100.00;98625.53;5046830;28;20071;-73
2023/03/28 08:44:33;;;;;;;6.82;2.28;;;12.00;95.70;;;7.85;100.00;98635.09;5030558;28;20367;-73
2023/03/28 08:47:09;;;;;;;9.88;1.63;;;11.00;95.70;;;8.78;100.00;98640.50;5043685;28;20044;-73
2023/03/28 08:49:49;;;;;;;8.50;1.13;;;9.90;95.60;;;9.46;100.00;98635.69;5038660;28;20051;-73
2023/03/28 08:52:19;;;;;;;4.55;1.20;;;9.00;96.30;;;9.69;100.00;98635.19;5048581;28;21743;-74
2023/03/28 08:55:10;;;;;;;7.30;1.27;;;9.10;97.00;;;8.85;100.00;98635.19;5043482;28;20045;-74
2023/03/28 08:57:41;;;;;;;5.18;1.27;;;10.10;97.50;;;8.57;100.00;98639.13;5046366;28;20041;-73
2023/03/28 09:00:36;;;;;;;5.63;1.60;;;10.50;97.20;;;8.97;100.00;98630.63;5044700;28;20060;-74
2023/03/28 09:03:22;;;;;;;;;;;;;;;9.43;100.00;98634.03;5043218;28;20076;-74
2023/03/28 09:06:36;;;;;;;7.32;1.33;;;9.40;95.70;;;9.80;100.00;98628.03;5046824;28;21253;-74
2023/03/28 09:09:19;;;;;;;3.42;0.90;;;9.80;96.60;;;9.88;100.00;98626.13;5058270;28;20964;-74
2023/03/28 09:12:04;;;;;;;5.70;1.17;;;10.90;95.50;;;9.45;100.00;98627.09;5043599;28;20132;-73
2023/03/28 09:14:40;;;;;;;8.63;1.20;;;10.20;94.40;;;8.61;100.00;98636.50;5046266;28;20559;-74
2023/03/28 09:17:48;;;;;;;5.88;1.30;;;10.30;95.30;;;9.27;100.00;98632.66;5044922;28;20128;-75
2023/03/28 09:21:20;;;;;;;5.32;0.90;;;9.90;93.30;;;9.74;100.00;98628.16;5044751;28;20041;-74
2023/03/28 09:24:25;;;;;;;4.60;0.95;;;9.20;92.40;;;8.14;100.00;98623.44;5051157;28;20049;-76
2023/03/28 09:27:10;;;;;;;3.92;0.88;;;;;;;8.74;100.00;98628.47;5040725;28;20115;-77
2023/03/28 09:29:42;;;;;;;4.55;0.80;;;8.40;92.60;;;9.13;100.00;98628.59;5059810;28;20064;-77
2023/03/28 09:32:25;;;;;;;7.72;0.90;;;8.10;91.70;;;8.94;100.00;98620.34;5055119;28;20088;-76
2023/03/28 09:34:52;;;;;;;4.40;1.10;;;8.90;91.90;;;9.35;100.00;98616.06;5057989;28;20463;-76
2023/03/28 09:37:35;;;;;;;4.53;0.90;;;9.30;93.50;;;10.23;100.00;98621.84;5058615;28;20123;-76
2023/03/28 09:40:13;;;;;;;4.72;1.10;;;10.50;93.60;;;10.48;100.00;98622.13;5043184;28;20049;-76
2023/03/28 09:43:26;;;;;;;3.95;1.42;;;11.20;93.80;;;10.42;100.00;98623.16;5041232;28;20481;-75
2023/03/28 09:46:04;;;;;;;4.18;1.55;;;11.00;88.30;;;10.87;93.74;98614.16;5055418;28;20050;-76
2023/03/28 09:48:35;;;;;;;6.10;1.75;;;10.30;87.10;;;10.63;88.18;98618.28;5060784;28;20063;-77
2023/03/28 09:51:05;;;;;;;5.03;1.20;;;10.10;86.50;;;10.94;83.47;98614.84;5046667;28;20137;-77
2023/03/28 09:53:36;;;;;;;4.03;1.20;;;9.80;88.50;;;12.51;84.88;98605.75;5038867;28;20072;-76
2023/03/28 09:56:32;;;;;;;7.45;1.65;;;10.80;87.80;;;10.03;84.39;98618.00;5031795;28;20137;-79
2023/03/28 09:59:04;;;;;;;4.63;1.20;;;11.10;85.70;;;10.13;86.06;98603.06;5055108;28;20204;-80
2023/03/28 10:01:45;;;;;;;4.50;1.25;;;10.00;87.60;;;10.45;97.44;98601.44;5026864;28;20068;-78
2023/03/28 10:04:20;;;;;;;2.13;0.68;;;10.50;91.10;;;10.48;100.00;98608.28;5046002;28;20231;-80
2023/03/28 10:06:47;;;;;;;7.95;1.88;;;11.10;91.30;;;9.11;95.02;98626.94;5054800;28;20404;-79
2023/03/28 10:09:27;;;;;;;4.88;1.00;;;10.30;87.60;;;9.32;100.00;98608.34;5042195;28;20049;-79
2023/03/28 10:12:03;;;;;;;5.45;1.10;;;10.40;92.10;;;11.46;100.00;98588.22;5044312;28;20045;-79
2023/03/28 10:14:30;;;;;;;4.57;1.17;;;11.20;91.80;;;12.22;98.69;98589.34;5030070;28;20085;-79
2023/03/28 10:17:28;;;;;;;5.97;1.92;;;11.80;90.50;;;11.14;92.09;98596.13;5038970;28;20120;-80
2023/03/28 10:20:14;;;;;;;5.22;1.63;;;11.50;88.70;;;10.00;95.73;98615.47;5048236;28;20111;-76
2023/03/28 10:22:46;;;;;;;4.90;0.93;;;11.20;87.60;;;9.87;95.53;98608.84;5048330;28;20080;-76
2023/03/28 10:25:41;;;;;;;6.25;1.30;;;9.90;87.60;;;9.05;94.20;98603.72;5046932;28;20375;-75
2023/03/28 10:28:14;;;;;;;4.53;1.02;;;;;;;8.54;100.00;98597.78;5028651;28;20115;-75
2023/03/28 10:30:41;;;;;;;5.80;1.30;;;9.10;91.20;;;8.23;100.00;98602.59;5054326;28;20796;-75
2023/03/28 10:33:15;;;;;;;4.45;1.30;;;9.00;91.30;;;8.59;100.00;98602.88;5036992;28;20088;-75
2023/03/28 10:36:01;;;;;;;8.75;2.50;;;8.50;90.90;;;8.92;100.00;98591.03;5040722;28;20053;-75
2023/03/28 10:38:45;;;;;;;9.05;4.38;;;8.60;91.90;;;8.02;100.00;98596.03;5043874;28;20090;-75
2023/03/28 10:41:25;;;;;;;5.78;1.60;;;8.30;90.90;;;7.65;100.00;98598.34;5058241;28;20056;-75
2023/03/28 10:43:54;;;;;;;9.43;2.53;;;8.20;90.50;;;7.62;100.00;98590.63;5056421;28;20048;-76